Time;durP1;ratioP1;P1;durP2;ratioP2;P2;SDS_P1;SDS_P2;PMS_P1;PMS_P2;Temp;Humidity;BMP_temperature;BMP_pressure;BME280_temperature;BME280_humidity;BME280_pressure;Samples;Min_cycle;Max_cycle;Signal;HPM_P1;HPM_P2
2023/02/05 00:02:21;;;;;;;6.75;2.17;;;;;;;15.11;46.19;101611.63;5051978;28;20131;-52
2023/02/05 00:04:49;;;;;;;6.40;2.10;;;;;;;15.10;46.84;101620.66;5052139;28;20083;-52
2023/02/05 00:07:17;;;;;;;6.55;2.15;;;;;;;15.07;46.17;101618.16;5052035;28;20052;-51
2023/02/05 00:09:49;;;;;;;4.85;1.88;;;;;;;15.03;46.44;101622.81;5051897;28;20490;-51
2023/02/05 00:12:17;;;;;;;5.00;1.85;;;;;;;15.01;46.57;101623.84;5052028;28;20052;-51
2023/02/05 00:14:46;;;;;;;6.53;2.20;;;;;;;14.99;46.25;101623.09;5052252;28;20397;-52
2023/02/05 00:17:14;;;;;;;3.20;1.73;;;;;;;14.97;47.15;101616.94;5052010;28;20049;-52
2023/02/05 00:19:42;;;;;;;3.90;1.92;;;;;;;14.93;45.81;101621.59;5051559;28;20048;-52
2023/02/05 00:22:10;;;;;;;4.20;2.03;;;;;;;14.88;46.05;101624.56;5051669;28;20052;-52
2023/02/05 00:24:38;;;;;;;5.78;2.28;;;;;;;14.85;45.45;101618.47;5051623;28;20494;-52
2023/02/05 00:27:09;;;;;;;5.25;1.95;;;;;;;14.80;45.35;101621.44;5051728;28;20375;-51
2023/02/05 00:29:37;;;;;;;3.92;1.85;;;;;;;14.80;46.74;101620.56;5051753;28;20045;-53
2023/02/05 00:32:05;;;;;;;4.72;1.95;;;;;;;14.76;46.56;101635.09;5051436;28;20049;-52
2023/02/05 00:34:33;;;;;;;6.15;2.08;;;;;;;14.75;46.22;101633.38;5051555;28;20133;-51
2023/02/05 00:37:01;;;;;;;5.18;2.08;;;;;;;14.71;47.17;101640.75;5051782;28;20482;-52
2023/02/05 00:39:29;;;;;;;4.90;1.92;;;;;;;14.68;47.76;101642.75;5051250;28;20049;-53
2023/02/05 00:41:58;;;;;;;5.38;1.98;;;;;;;14.67;46.89;101652.63;5051488;28;20045;-52
2023/02/05 00:44:27;;;;;;;5.60;2.03;;;;;;;14.64;45.87;101646.53;5054166;28;20044;-51
2023/02/05 00:46:55;;;;;;;4.40;1.85;;;;;;;14.62;47.15;101643.94;5055405;28;20490;-52
2023/02/05 00:49:24;;;;;;;4.32;1.88;;;;;;;14.55;47.34;101624.59;5055418;28;20040;-52
2023/02/05 00:51:52;;;;;;;5.70;1.90;;;;;;;14.56;46.70;101638.91;5055217;28;20127;-52
2023/02/05 00:54:20;;;;;;;4.85;1.90;;;;;;;14.54;47.01;101640.81;5055413;28;20049;-52
2023/02/05 00:56:48;;;;;;;3.45;1.58;;;;;;;14.50;46.96;101639.25;5054946;28;20045;-52
2023/02/05 00:59:16;;;;;;;5.32;1.38;;;;;;;14.48;47.69;101641.16;5054922;28;20045;-52
2023/02/05 01:01:48;;;;;;;5.57;1.70;;;;;;;14.47;48.04;101639.41;5055024;28;20045;-53
2023/02/05 01:04:16;;;;;;;4.10;1.52;;;;;;;14.44;46.76;101635.03;5054937;28;20075;-52
2023/02/05 01:06:44;;;;;;;4.63;1.67;;;;;;;14.42;47.66;101630.72;5054788;28;20041;-51
2023/02/05 01:09:12;;;;;;;3.83;1.70;;;;;;;14.39;47.20;101642.50;5054877;28;20071;-53
2023/02/05 01:11:40;;;;;;;3.60;1.75;;;;;;;14.37;46.66;101651.56;5053654;28;20049;-52
2023/02/05 01:14:09;;;;;;;4.30;1.60;;;;;;;14.34;48.13;101636.47;5054748;28;20068;-53
2023/02/05 01:16:37;;;;;;;5.10;2.00;;;;;;;14.30;47.06;101643.84;5054778;28;20045;-52
2023/02/05 01:19:06;;;;;;;4.20;1.70;;;;;;;14.29;47.06;101652.84;5054577;28;20049;-53
2023/02/05 01:21:35;;;;;;;4.47;1.77;;;;;;;14.27;47.71;101648.50;5054752;28;20049;-52
2023/02/05 01:24:03;;;;;;;4.40;1.63;;;;;;;14.25;47.92;101650.41;5054772;28;20067;-53
2023/02/05 01:26:31;;;;;;;3.88;1.70;;;;;;;14.22;48.11;101646.06;5054781;28;20057;-52
2023/02/05 01:28:59;;;;;;;5.13;1.92;;;;;;;14.20;47.99;101650.66;5054536;28;20539;-50
2023/02/05 01:31:28;;;;;;;5.38;1.88;;;;;;;14.16;47.92;101650.88;5054486;28;20609;-50
2023/02/05 01:33:56;;;;;;;3.47;1.70;;;;;;;14.15;48.02;101651.84;5054431;28;20095;-54
2023/02/05 01:36:26;;;;;;;3.80;1.60;;;;;;;14.12;47.98;101660.94;5054283;28;20076;-52
2023/02/05 01:38:54;;;;;;;5.63;1.70;;;;;;;14.10;48.31;101662.81;5054505;28;20585;-51
2023/02/05 01:41:25;;;;;;;4.50;1.70;;;;;;;14.07;48.94;101662.97;5054387;28;20484;-50
2023/02/05 01:44:07;;;;;;;4.25;1.80;;;;;;;14.04;48.91;101663.13;5054367;28;20055;-52
2023/02/05 01:46:36;;;;;;;4.18;1.80;;;;;;;14.02;48.89;101673.09;5056394;28;20041;-51
2023/02/05 01:49:07;;;;;;;5.10;1.80;;;;;;;14.01;49.23;101674.91;5057715;28;20124;-53
2023/02/05 01:51:38;;;;;;;4.53;1.75;;;;;;;13.94;48.81;101664.56;5055556;28;20045;-52
2023/02/05 01:54:07;;;;;;;3.05;1.42;;;;;;;13.93;49.03;101665.50;5054625;28;20409;-52
2023/02/05 01:56:40;;;;;;;4.20;1.60;;;;;;;13.94;48.83;101670.78;5055069;28;20149;-52
2023/02/05 01:59:11;;;;;;;5.13;1.70;;;;;;;13.92;48.92;101669.16;5054571;28;20500;-53
2023/02/05 02:01:41;;;;;;;3.35;1.42;;;;;;;13.91;49.33;101667.41;5058126;28;20098;-54
2023/02/05 02:04:11;;;;;;;3.95;1.70;;;;;;;13.87;49.59;101661.31;5057984;28;20048;-52
2023/02/05 02:06:41;;;;;;;4.30;1.70;;;;;;;13.85;49.26;101659.69;5060938;28;20041;-51
2023/02/05 02:09:09;;;;;;;3.60;1.58;;;;;;;13.85;49.67;101667.72;5060023;28;20045;-53
2023/02/05 02:11:43;;;;;;;3.63;1.65;;;;;;;13.78;48.93;101655.56;5057604;28;20037;-51
2023/02/05 02:14:12;;;;;;;3.00;1.52;;;;;;;13.82;49.40;101662.53;5060018;28;20489;-54
2023/02/05 02:16:41;;;;;;;4.07;1.98;;;;;;;13.80;49.38;101664.38;5060835;28;20073;-52
2023/02/05 02:19:16;;;;;;;4.43;1.70;;;;;;;13.78;49.50;101674.34;5057968;28;20052;-54
2023/02/05 02:22:17;;;;;;;4.18;1.92;;;;;;;13.73;48.98;101670.09;5057138;28;20053;-53
2023/02/05 02:25:20;;;;;;;3.75;1.48;;;;;;;13.72;49.25;101673.72;5060193;28;20044;-52
2023/02/05 02:27:54;;;;;;;3.30;1.55;;;;;;;13.69;50.02;101668.50;5060455;28;20056;-53
2023/02/05 02:30:26;;;;;;;4.55;1.80;;;;;;;13.66;49.26;101668.66;5058865;28;20045;-53
2023/02/05 02:33:05;;;;;;;2.63;1.38;;;;;;;13.67;49.62;101686.47;5060308;28;20049;-52
2023/02/05 02:35:42;;;;;;;3.47;1.42;;;;;;;13.64;49.42;101683.97;5055971;28;20124;-53
2023/02/05 02:38:17;;;;;;;3.90;1.70;;;;;;;13.65;49.66;101693.72;5055155;28;20048;-53
2023/02/05 02:40:49;;;;;;;3.72;1.58;;;;;;;13.63;49.52;101695.63;5055494;28;20045;-52
2023/02/05 02:43:24;;;;;;;3.53;1.77;;;;;;;13.58;49.48;101697.66;5054626;28;20102;-54
2023/02/05 02:45:57;;;;;;;3.20;1.60;;;;;;;13.59;49.67;101706.56;5053200;28;20405;-54
2023/02/05 02:48:30;;;;;;;3.15;1.52;;;;;;;13.56;49.48;101710.28;5053248;28;20072;-54
2023/02/05 02:51:00;;;;;;;3.00;1.60;;;;;;;13.57;49.99;101700.41;5053443;28;20063;-52
2023/02/05 02:53:33;;;;;;;5.30;1.60;;;;;;;13.64;50.40;101708.09;5053398;28;20083;-51
2023/02/05 02:56:03;;;;;;;4.30;1.67;;;;;;;13.72;50.66;101705.91;5053319;28;20128;-52
2023/02/05 02:58:39;;;;;;;3.88;1.45;;;;;;;13.85;50.66;101710.63;5053237;28;20462;-50
2023/02/05 03:01:10;;;;;;;4.88;1.70;;;;;;;13.95;50.48;101717.25;5052618;28;20057;-52
2023/02/05 03:03:42;;;;;;;3.40;1.60;;;;;;;14.03;50.35;101710.56;5053141;28;20044;-51
2023/02/05 03:06:12;;;;;;;3.88;1.42;;;;;;;14.16;50.26;101721.50;5052614;28;20049;-54
2023/02/05 03:08:47;;;;;;;3.88;1.60;;;;;;;14.27;50.12;101723.63;5052805;28;20397;-50
2023/02/05 03:11:15;;;;;;;3.78;1.63;;;;;;;14.37;49.91;101719.53;5052871;28;20391;-53
2023/02/05 03:13:46;;;;;;;3.38;1.50;;;;;;;14.48;49.79;101727.06;5052902;28;20048;-53
2023/02/05 03:16:16;;;;;;;3.67;1.70;;;;;;;14.53;49.50;101725.84;5052882;28;20049;-51
2023/02/05 03:18:44;;;;;;;4.13;1.73;;;;;;;14.59;49.38;101730.03;5052632;28;20137;-53
2023/02/05 03:21:17;;;;;;;3.00;1.60;;;;;;;14.61;49.08;101728.13;5052431;28;20045;-52
2023/02/05 03:23:45;;;;;;;2.93;1.40;;;;;;;14.62;49.09;101737.94;5052619;28;20181;-57
2023/02/05 03:26:37;;;;;;;3.47;1.60;;;;;;;14.62;48.94;101745.97;5052433;28;20076;-54
2023/02/05 03:29:10;;;;;;;3.00;1.40;;;;;;;14.61;49.04;101752.31;5049991;28;20069;-51
2023/02/05 03:31:48;;;;;;;3.53;1.70;;;;;;;14.58;49.12;101752.47;5052363;28;20120;-53
2023/02/05 03:34:26;;;;;;;3.15;1.35;;;;;;;14.58;49.04;101761.41;5052111;28;20048;-52
2023/02/05 03:37:04;;;;;;;4.07;1.50;;;;;;;14.56;49.06;101765.09;5052170;28;20079;-53
2023/02/05 03:39:49;;;;;;;2.30;1.30;;;;;;;14.55;49.04;101771.41;5052189;28;20436;-53
2023/02/05 03:42:29;;;;;;;2.58;1.30;;;;;;;14.53;49.23;101773.31;5052114;28;20413;-51
2023/02/05 03:45:25;;;;;;;4.05;1.40;;;;;;;14.50;49.19;101777.03;5052023;28;20076;-52
2023/02/05 03:48:04;;;;;;;3.15;1.50;;;;;;;14.47;49.25;101773.63;5052065;28;20063;-54
2023/02/05 03:50:40;;;;;;;3.22;1.20;;;;;;;14.46;49.22;101777.28;5051985;28;20041;-52
2023/02/05 03:53:17;;;;;;;2.92;1.40;;;;;;;14.43;49.02;101780.94;5052068;28;20405;-55
2023/02/05 03:55:51;;;;;;;3.33;1.70;;;;;;;14.37;48.92;101770.53;5052227;28;20048;-52
2023/02/05 03:58:25;;;;;;;3.72;1.58;;;;;;;14.38;49.00;101783.03;5052051;28;20405;-52
2023/02/05 04:00:54;;;;;;;3.42;1.50;;;;;;;14.33;48.69;101780.56;5051638;28;20064;-52
2023/02/05 04:03:23;;;;;;;4.03;1.42;;;;;;;14.31;48.04;101785.16;5051854;28;20052;-53
2023/02/05 04:05:51;;;;;;;4.65;1.50;;;;;;;14.28;48.42;101779.06;5051836;28;20474;-53
2023/02/05 04:08:19;;;;;;;3.35;1.40;;;;;;;14.25;48.57;101785.44;5051746;28;20574;-53
2023/02/05 04:10:49;;;;;;;3.92;1.50;;;;;;;14.21;48.33;101786.56;5051762;28;20478;-51
2023/02/05 04:13:18;;;;;;;2.85;1.40;;;;;;;14.19;48.47;101788.47;5051742;28;20444;-52
2023/02/05 04:15:48;;;;;;;2.90;1.40;;;;;;;14.18;48.63;101792.06;5051767;28;20045;-52
2023/02/05 04:18:18;;;;;;;2.95;1.50;;;;;;;14.15;48.58;101797.59;5052593;28;20040;-51
2023/02/05 04:20:46;;;;;;;2.17;1.25;;;;;;;14.10;48.95;101797.00;5055683;28;20706;-51
2023/02/05 04:23:14;;;;;;;3.03;1.40;;;;;;;14.07;48.94;101797.13;5055653;28;20090;-51
2023/02/05 04:25:42;;;;;;;3.40;1.42;;;;;;;14.06;48.97;101811.47;5055702;28;20099;-52
2023/02/05 04:28:11;;;;;;;3.80;1.40;;;;;;;13.98;48.87;101798.44;5055533;28;20040;-53
2023/02/05 04:30:39;;;;;;;4.15;1.67;;;;;;;13.98;48.75;101808.31;5055680;28;20397;-51
2023/02/05 04:33:07;;;;;;;3.55;1.60;;;;;;;13.96;48.87;101816.44;5055807;28;20049;-51
2023/02/05 04:35:37;;;;;;;2.90;1.40;;;;;;;13.94;48.81;101818.34;5055522;28;20087;-52
2023/02/05 04:38:05;;;;;;;3.92;1.65;;;;;;;13.95;48.94;101824.56;5055643;28;20124;-52
2023/02/05 04:40:33;;;;;;;2.88;1.55;;;;;;;13.96;48.92;101818.25;5055423;28;20056;-53
2023/02/05 04:43:01;;;;;;;3.92;1.55;;;;;;;14.04;49.13;101830.34;5055267;28;20045;-52
2023/02/05 04:45:32;;;;;;;3.03;1.40;;;;;;;14.13;49.13;101829.03;5055321;28;20053;-51
2023/02/05 04:48:01;;;;;;;3.42;1.42;;;;;;;14.22;49.02;101823.19;5055622;28;20056;-52
2023/02/05 04:50:29;;;;;;;2.78;1.55;;;;;;;14.34;48.84;101832.44;5055297;28;20045;-53
2023/02/05 04:53:00;;;;;;;4.68;1.80;;;;;;;14.45;48.64;101831.91;5055275;28;20045;-53
2023/02/05 04:55:29;;;;;;;3.00;1.35;;;;;;;14.53;48.57;101832.38;5055301;28;20504;-53
2023/02/05 04:57:57;;;;;;;2.65;1.30;;;;;;;14.62;48.38;101831.91;5055224;28;20095;-52
2023/02/05 05:00:26;;;;;;;3.03;1.40;;;;;;;14.73;48.21;101834.91;5055298;28;20060;-53
2023/02/05 05:02:54;;;;;;;2.28;1.17;;;;;;;14.82;47.98;101836.25;5054983;28;20114;-55
2023/02/05 05:05:23;;;;;;;3.08;1.30;;;;;;;14.92;47.82;101845.56;5054995;28;20072;-53
2023/02/05 05:07:51;;;;;;;4.07;1.13;;;;;;;14.99;47.77;101846.09;5087153;28;20079;-54
2023/02/05 05:10:20;;;;;;;3.75;1.63;;;;;;;15.08;47.55;101843.78;5055035;28;20106;-53
2023/02/05 05:12:48;;;;;;;3.15;1.55;;;;;;;15.15;47.42;101845.19;5054833;28;20049;-53
2023/02/05 05:15:17;;;;;;;3.22;1.35;;;;;;;15.23;47.20;101855.50;5054727;28;20045;-52
2023/02/05 05:17:45;;;;;;;3.70;1.60;;;;;;;15.30;47.18;101851.56;5054875;28;20049;-54
2023/02/05 05:20:13;;;;;;;3.15;1.50;;;;;;;15.38;47.02;101857.38;5054700;28;20072;-52
2023/02/05 05:22:41;;;;;;;3.08;1.50;;;;;;;15.47;46.90;101861.38;5054845;28;20049;-53
2023/02/05 05:25:09;;;;;;;2.65;1.42;;;;;;;15.57;46.69;101877.88;5054708;28;20108;-54
2023/02/05 05:27:39;;;;;;;4.10;1.58;;;;;;;15.65;46.51;101872.97;5054729;28;20072;-53
2023/02/05 05:30:09;;;;;;;2.97;1.50;;;;;;;15.72;46.33;101875.22;5054522;28;20107;-55
2023/02/05 05:32:37;;;;;;;3.20;1.50;;;;;;;15.80;46.18;101877.47;5054602;28;20055;-50
2023/02/05 05:35:06;;;;;;;2.70;1.42;;;;;;;15.87;45.91;101883.41;5054572;28;20087;-54
2023/02/05 05:37:34;;;;;;;2.28;1.33;;;;;;;15.90;45.81;101883.22;5054363;28;20498;-52
2023/02/05 05:45:35;;;;;;;3.50;1.38;;;;;;;15.96;45.77;101883.75;5054321;28;20472;-54
2023/02/05 05:48:04;;;;;;;2.47;1.40;;;;;;;15.98;45.65;101889.03;5054279;28;20124;-52
2023/02/05 05:50:32;;;;;;;2.25;1.35;;;;;;;15.99;45.69;101898.84;5054130;28;20049;-53
2023/02/05 05:53:00;;;;;;;3.30;1.60;;;;;;;15.99;45.66;101894.31;5054057;28;20072;-52
2023/02/05 05:55:28;;;;;;;2.45;1.30;;;;;;;16.01;45.54;101902.31;5054188;28;20052;-52
2023/02/05 05:57:58;;;;;;;2.67;1.38;;;;;;;16.02;45.58;101904.06;5054044;28;20052;-53
2023/02/05 06:00:26;;;;;;;3.42;1.48;;;;;;;16.00;45.52;101898.75;5053923;28;20135;-54
2023/02/05 06:02:55;;;;;;;1.83;1.20;;;;;;;15.95;45.42;101899.97;5053802;28;20043;-53
2023/02/05 06:05:23;;;;;;;2.60;1.40;;;;;;;15.96;45.56;101909.78;5053993;28;20482;-51
2023/02/05 06:07:51;;;;;;;2.70;1.48;;;;;;;15.92;45.56;101897.44;5053919;28;20504;-54
2023/02/05 06:10:19;;;;;;;3.63;1.40;;;;;;;15.87;45.60;101908.47;5053776;28;20106;-53
2023/02/05 06:12:47;;;;;;;3.22;1.42;;;;;;;15.83;45.58;101917.69;5053761;28;20045;-55
2023/02/05 06:15:17;;;;;;;3.17;1.58;;;;;;;15.80;45.65;101920.53;5053768;28;20072;-53
2023/02/05 06:17:45;;;;;;;2.60;1.50;;;;;;;15.76;45.79;101924.38;5053756;28;20148;-54
2023/02/05 06:20:15;;;;;;;2.45;1.50;;;;;;;15.71;45.81;101927.28;5053528;28;20059;-54
2023/02/05 06:22:43;;;;;;;3.95;1.50;;;;;;;15.66;45.79;101933.91;5053435;28;20143;-56
2023/02/05 06:25:11;;;;;;;3.63;1.70;;;;;;;15.61;45.85;101926.06;5053541;28;20045;-55
2023/02/05 06:27:39;;;;;;;3.05;1.70;;;;;;;15.58;45.94;101933.41;5053595;28;20049;-50
2023/02/05 06:30:08;;;;;;;3.72;1.60;;;;;;;15.52;46.04;101926.53;5053364;28;20068;-53
2023/02/05 06:32:40;;;;;;;3.58;1.35;;;;;;;15.48;46.09;101918.72;5053418;28;20049;-52
2023/02/05 06:35:08;;;;;;;2.75;1.42;;;;;;;15.44;46.07;101916.22;5053421;28;20402;-52
2023/02/05 06:37:37;;;;;;;2.65;1.45;;;;;;;15.37;46.15;101920.16;5053421;28;20134;-50
2023/02/05 06:40:16;;;;;;;3.75;1.50;;;;;;;15.35;46.01;101922.09;5053306;28;20045;-52
2023/02/05 06:42:45;;;;;;;3.13;1.58;;;;;;;15.31;45.86;101923.19;5052564;28;20059;-52
2023/02/05 06:45:13;;;;;;;3.13;1.70;;;;;;;15.27;45.80;101918.94;5053076;28;20049;-53
2023/02/05 06:47:43;;;;;;;2.45;1.35;;;;;;;15.21;45.90;101929.13;5053108;28;20067;-52
2023/02/05 06:50:11;;;;;;;2.15;1.40;;;;;;;15.22;45.65;101933.56;5053168;28;20049;-51
2023/02/05 06:52:40;;;;;;;2.78;1.58;;;;;;;15.19;45.74;101934.59;5052922;28;20045;-52
2023/02/05 06:55:08;;;;;;;3.45;1.42;;;;;;;15.13;45.89;101930.41;5053032;28;20124;-53
2023/02/05 06:57:37;;;;;;;2.53;1.42;;;;;;;15.11;45.90;101937.69;5052787;28;20044;-53
2023/02/05 07:00:06;;;;;;;2.60;1.48;;;;;;;15.07;45.71;101935.25;5052763;28;20052;-53
2023/02/05 07:02:34;;;;;;;2.83;1.52;;;;;;;15.02;45.79;101940.84;5052666;28;20041;-54
2023/02/05 07:05:04;;;;;;;3.03;1.60;;;;;;;14.98;45.75;101933.03;5052696;28;20087;-54
2023/02/05 07:07:33;;;;;;;2.90;1.48;;;;;;;14.95;45.99;101943.91;5052671;28;20041;-52
2023/02/05 07:10:05;;;;;;;3.40;1.58;;;;;;;14.89;45.91;101951.38;5052633;28;20048;-52
2023/02/05 07:12:34;;;;;;;3.20;1.70;;;;;;;14.86;45.86;101954.22;5052522;28;20593;-51
2023/02/05 07:15:03;;;;;;;4.10;1.60;;;;;;;14.82;45.71;101952.63;5052375;28;20040;-53
2023/02/05 07:17:31;;;;;;;4.20;1.60;;;;;;;14.77;45.91;101954.69;5052579;28;20051;-53
2023/02/05 07:20:00;;;;;;;3.35;1.60;;;;;;;14.76;46.10;101962.78;5052433;28;20129;-55
2023/02/05 07:22:29;;;;;;;3.47;1.60;;;;;;;14.74;46.32;101960.19;5052339;28;20124;-52
2023/02/05 07:24:58;;;;;;;3.88;1.65;;;;;;;14.78;46.34;101969.84;5052349;28;20086;-51
2023/02/05 07:27:26;;;;;;;2.92;1.50;;;;;;;14.84;46.55;101968.66;5052394;28;20378;-53
2023/02/05 07:29:54;;;;;;;3.08;1.48;;;;;;;14.94;46.30;101967.25;5052306;28;20051;-53
2023/02/05 07:32:25;;;;;;;2.85;1.60;;;;;;;15.03;46.29;101968.59;5052291;28;20493;-52
2023/02/05 07:34:53;;;;;;;3.40;1.63;;;;;;;15.11;46.12;101969.94;5052237;28;20056;-53
2023/02/05 07:37:21;;;;;;;2.22;1.50;;;;;;;15.23;45.98;101968.41;5052119;28;20045;-52
2023/02/05 07:39:51;;;;;;;4.07;1.63;;;;;;;15.27;45.79;101966.44;5052090;28;20049;-52
2023/02/05 07:42:19;;;;;;;3.60;1.60;;;;;;;15.36;45.73;101974.91;5051963;28;20045;-54
2023/02/05 07:44:47;;;;;;;3.70;1.70;;;;;;;15.45;45.51;101974.41;5052105;28;20045;-52
2023/02/05 07:47:15;;;;;;;3.55;1.65;;;;;;;15.55;45.46;101984.69;5052119;28;20067;-53
2023/02/05 07:49:44;;;;;;;2.70;1.60;;;;;;;15.64;45.29;101976.16;5052007;28;20052;-52
2023/02/05 07:52:13;;;;;;;2.65;1.58;;;;;;;15.70;45.10;101978.50;5051663;28;20041;-52
2023/02/05 07:54:41;;;;;;;3.33;1.50;;;;;;;15.77;44.88;101979.03;5051573;28;20048;-55
2023/02/05 07:57:10;;;;;;;5.47;1.80;;;;;;;15.82;44.75;101980.50;5051820;28;20119;-52
2023/02/05 07:59:39;;;;;;;4.15;1.77;;;;;;;15.87;44.68;101978.44;5051756;28;20045;-52
2023/02/05 08:02:07;;;;;;;4.05;1.55;;;;;;;15.92;44.69;101983.56;5051736;28;20489;-53
2023/02/05 08:04:35;;;;;;;4.13;1.70;;;;;;;15.88;44.59;101980.19;5051593;28;20521;-52
2023/02/05 08:07:04;;;;;;;4.03;1.88;;;;;;;15.90;44.56;101980.09;5051880;28;20053;-53
2023/02/05 08:09:36;;;;;;;3.55;1.85;;;;;;;15.90;44.53;101983.66;5051954;28;20057;-54
2023/02/05 08:12:05;;;;;;;2.85;1.63;;;;;;;15.89;44.67;101989.13;5051682;28;20048;-56
2023/02/05 08:14:35;;;;;;;5.18;1.88;;;;;;;15.88;45.10;101980.19;5051720;28;20413;-54
2023/02/05 08:17:04;;;;;;;4.82;2.38;;;;;;;15.88;45.46;101974.78;5051540;28;20505;-54
2023/02/05 08:19:33;;;;;;;5.82;2.42;;;;;;;15.81;45.59;101959.94;5051547;28;20425;-51
2023/02/05 08:22:01;;;;;;;6.68;2.20;;;;;;;15.84;45.73;101972.38;5051441;28;20445;-52
2023/02/05 08:24:31;;;;;;;6.38;2.22;;;;;;;15.81;45.95;101976.06;5051313;28;20072;-52
2023/02/05 08:27:02;;;;;;;4.63;2.17;;;;;;;15.77;46.08;101974.53;5051522;28;20045;-52
2023/02/05 08:29:30;;;;;;;5.40;1.92;;;;;;;15.74;46.22;101972.00;5051470;28;20074;-50
2023/02/05 08:31:59;;;;;;;8.68;2.20;;;;;;;15.72;46.33;101971.19;5051149;28;20045;-50
2023/02/05 08:34:28;;;;;;;7.60;2.10;;;;;;;15.66;46.44;101972.41;5051420;28;20045;-52
2023/02/05 08:36:56;;;;;;;5.32;2.10;;;;;;;15.64;46.52;101968.09;5051465;28;20048;-53
2023/02/05 08:39:25;;;;;;;7.88;2.30;;;;;;;15.59;46.73;101970.09;5051426;28;20041;-53
2023/02/05 08:41:54;;;;;;;6.88;2.30;;;;;;;15.56;46.67;101960.38;5051760;28;20049;-53
2023/02/05 08:44:24;;;;;;;7.43;2.30;;;;;;;15.52;46.64;101972.25;5051125;28;20387;-53
2023/02/05 08:46:52;;;;;;;6.80;2.05;;;;;;;15.50;46.72;101965.22;5051400;28;20129;-50
2023/02/05 08:49:22;;;;;;;6.88;2.10;;;;;;;15.47;46.34;101968.94;5051309;28;20120;-53
2023/02/05 08:51:50;;;;;;;8.30;2.30;;;;;;;15.44;46.14;101972.69;5051208;28;20048;-52
2023/02/05 08:54:19;;;;;;;7.45;2.58;;;;;;;15.41;46.08;101971.94;5051229;28;20069;-53
2023/02/05 08:56:50;;;;;;;6.72;2.35;;;;;;;15.39;46.22;101974.72;5051140;28;20045;-52
2023/02/05 08:59:19;;;;;;;8.00;2.25;;;;;;;15.34;45.80;101975.91;5051244;28;20072;-53
2023/02/05 09:01:48;;;;;;;5.80;2.15;;;;;;;15.31;46.15;101971.56;5050939;28;20057;-52
2023/02/05 09:04:18;;;;;;;8.75;2.20;;;;;;;15.29;45.98;101983.38;5051918;28;20103;-55
2023/02/05 09:06:48;;;;;;;8.45;2.05;;;;;;;15.25;46.01;101973.69;5054939;28;20052;-50
2023/02/05 09:09:16;;;;;;;5.38;2.35;;;;;;;15.20;46.05;101971.28;5054927;28;20374;-52
2023/02/05 09:11:45;;;;;;;8.07;2.30;;;;;;;15.17;46.25;101980.38;5054938;28;20547;-52
2023/02/05 09:14:14;;;;;;;8.18;2.75;;;;;;;15.13;46.22;101977.91;5054888;28;20053;-53
2023/02/05 09:16:42;;;;;;;9.98;2.50;;;;;;;15.13;46.21;101977.91;5055015;28;20114;-53
2023/02/05 09:19:13;;;;;;;8.35;2.50;;;;;;;15.10;46.31;101988.81;5054800;28;20044;-55
2023/02/05 09:21:42;;;;;;;7.47;2.28;;;;;;;15.05;46.24;101977.44;5054718;28;20049;-51
2023/02/05 09:24:11;;;;;;;7.65;2.15;;;;;;;15.02;46.14;101972.22;5054408;28;20049;-51
2023/02/05 09:26:39;;;;;;;6.50;2.40;;;;;;;14.98;46.27;101974.22;5054585;28;20051;-51
2023/02/05 09:29:08;;;;;;;10.93;2.97;;;;;;;14.98;46.21;101974.22;5054561;28;20052;-51
2023/02/05 09:31:36;;;;;;;8.50;2.47;;;;;;;14.98;46.16;101978.72;5054538;28;20470;-50
2023/02/05 09:34:04;;;;;;;8.82;2.35;;;;;;;14.95;46.04;101984.22;5054489;28;20052;-50
2023/02/05 09:36:32;;;;;;;13.40;2.70;;;;;;;14.91;46.21;101977.28;5054261;28;20060;-50
2023/02/05 09:39:01;;;;;;;5.13;2.13;;;;;;;14.92;46.10;101977.19;5054610;28;20124;-52
2023/02/05 09:41:56;;;;;;;8.93;2.60;;;;;;;14.93;46.70;101970.00;5054311;28;20041;-53
2023/02/05 09:44:42;;;;;;;8.93;2.40;;;;;;;14.89;46.99;101990.81;5054062;28;20102;-51
2023/02/05 09:47:19;;;;;;;9.65;2.60;;;;;;;14.91;46.83;101971.91;5052239;28;20045;-52
2023/02/05 09:49:56;;;;;;;10.68;2.85;;;;;;;14.88;46.97;101972.94;5053747;28;20509;-48
2023/02/05 09:52:29;;;;;;;9.43;2.70;;;;;;;14.87;47.02;101985.50;5053579;28;20052;-51
2023/02/05 09:55:01;;;;;;;8.10;2.37;;;;;;;14.85;47.17;101984.69;5053603;28;20041;-51
2023/02/05 09:57:35;;;;;;;8.38;2.40;;;;;;;14.83;47.34;101989.28;5053123;28;20484;-51
2023/02/05 10:00:20;;;;;;;8.70;2.60;;;;;;;14.81;47.39;101991.19;5052853;28;20056;-50
2023/02/05 10:02:53;;;;;;;7.32;2.80;;;;;;;14.82;47.48;101995.59;5053899;28;20049;-53
2023/02/05 10:05:24;;;;;;;8.85;2.40;;;;;;;14.83;47.67;101977.66;5054975;28;20060;-54
2023/02/05 10:08:02;;;;;;;9.18;2.67;;;;;;;14.82;47.59;101967.88;5054524;28;20045;-51
2023/02/05 10:10:37;;;;;;;8.90;2.92;;;;;;;14.85;47.65;101959.66;5053755;28;20068;-51
2023/02/05 10:13:36;;;;;;;7.95;2.63;;;;;;;14.83;47.65;101965.09;5053674;28;20051;-53
2023/02/05 10:16:22;;;;;;;11.57;2.72;;;;;;;14.75;47.62;101956.56;5052521;28;20104;-51
2023/02/05 10:19:17;;;;;;;8.02;2.60;;;;;;;14.78;47.60;101956.44;5053567;28;20083;-51
2023/02/05 10:22:01;;;;;;;10.48;2.67;;;;;;;14.79;47.43;101957.28;5053551;28;20045;-53
2023/02/05 10:24:54;;;;;;;9.32;2.45;;;;;;;14.77;47.42;101952.00;5053442;28;20049;-52
2023/02/05 10:27:24;;;;;;;7.93;2.35;;;;;;;14.76;47.35;101952.91;5053304;28;20448;-50
2023/02/05 10:30:02;;;;;;;10.43;2.65;;;;;;;14.72;47.30;101956.72;5053362;28;20045;-53
2023/02/05 10:32:45;;;;;;;7.07;2.47;;;;;;;14.72;47.35;101959.41;5053218;28;20048;-54
2023/02/05 10:35:23;;;;;;;8.23;2.33;;;;;;;14.71;47.49;101957.69;5052876;28;20045;-53
2023/02/05 10:37:54;;;;;;;8.10;2.92;;;;;;;14.69;47.42;101946.16;5053028;28;20044;-53
2023/02/05 10:40:28;;;;;;;;;;;;;;;14.76;46.45;101955.59;5053531;28;20137;-51
2023/02/05 10:43:04;;;;;;;8.10;2.70;;;;;;;14.81;46.36;101944.66;5053117;28;19927;-52
2023/02/05 10:45:33;;;;;;;7.55;2.70;;;;;;;14.86;46.05;101951.53;5052844;28;20052;-52
2023/02/05 10:48:35;;;;;;;8.52;2.45;;;;;;;14.88;46.06;101949.63;5052975;28;20132;-49
2023/02/05 10:51:05;;;;;;;6.40;2.05;;;;;;;14.78;46.05;101937.63;5052996;28;20065;-49
2023/02/05 10:53:35;;;;;;;6.70;2.42;;;;;;;14.85;45.93;101932.78;5052770;28;20486;-50
2023/02/05 10:56:05;;;;;;;6.90;2.45;;;;;;;14.95;46.03;101933.19;5052872;28;20379;-51
2023/02/05 10:58:40;;;;;;;7.90;2.60;;;;;;;14.99;45.91;101924.88;5052777;28;20045;-50
2023/02/05 11:01:15;;;;;;;4.78;2.17;;;;;;;15.03;45.97;101925.59;5052687;28;20780;-51
2023/02/05 11:03:54;;;;;;;7.63;2.50;;;;;;;15.04;45.82;101925.50;5052702;28;20383;-51
2023/02/05 11:06:24;;;;;;;8.85;2.13;;;;;;;15.09;45.91;101936.03;5052533;28;20052;-50
2023/02/05 11:08:53;;;;;;;6.57;2.40;;;;;;;15.07;45.90;101932.56;5052416;28;20512;-50
2023/02/05 11:11:26;;;;;;;5.10;2.15;;;;;;;15.01;45.67;101930.19;5052692;28;20041;-53
2023/02/05 11:13:58;;;;;;;7.28;2.33;;;;;;;14.97;45.72;101925.94;5052452;28;20049;-51
2023/02/05 11:16:37;;;;;;;5.72;2.15;;;;;;;15.05;45.50;101926.38;5052520;28;20041;-51
2023/02/05 11:19:19;;;;;;;5.53;2.10;;;;;;;15.08;45.42;101924.41;5052391;28;20096;-50
2023/02/05 11:21:52;;;;;;;5.07;2.10;;;;;;;15.11;45.36;101921.56;5052424;28;20045;-50
2023/02/05 11:24:28;;;;;;;3.60;1.80;;;;;;;15.16;45.39;101919.50;5052751;28;20051;-52
2023/02/05 11:27:27;;;;;;;4.72;1.88;;;;;;;15.21;45.35;101913.88;5052652;28;20049;-53
2023/02/05 11:29:58;;;;;;;5.97;2.03;;;;;;;15.24;45.13;101908.31;4990775;28;20054;-53
2023/02/05 11:32:36;;;;;;;5.82;1.90;;;;;;;15.27;44.86;101910.88;5040311;28;20057;-50
2023/02/05 11:35:24;;;;;;;6.32;2.35;;;;;;;15.28;44.90;101896.47;5052140;28;20127;-50
2023/02/05 11:38:15;;;;;;;5.97;2.20;;;;;;;15.29;44.90;101914.34;5052018;28;20041;-50
2023/02/05 11:40:52;;;;;;;6.38;2.17;;;;;;;15.35;44.63;101905.09;5052200;28;20543;-51
2023/02/05 11:43:26;;;;;;;6.50;2.20;;;;;;;15.37;44.65;101900.50;5051997;28;20045;-51
2023/02/05 11:45:56;;;;;;;4.70;2.00;;;;;;;15.39;44.53;101891.38;5051929;28;20045;-50
2023/02/05 11:48:33;;;;;;;5.88;2.08;;;;;;;15.41;44.48;101889.47;5051788;28;20057;-50
2023/02/05 11:51:03;;;;;;;4.63;1.90;;;;;;;15.43;44.41;101887.56;5052000;28;20071;-50